In Rescue
 
Open Full Screen Window  High Contrast Mode
Wind Gusting 00 knots
09
April 19, 2021 7:01 PM CDT
Weather Information
Wind Direction
  310 °
Wind Speed
  09 kt (10 mph)
Wind Gust
  00 kt (0 mph)
Altimeter
30.00 in
Visibility
10 SM
Temperature
03° C
37° F
Dewpoint
-12° C
10° F
Humidity
33%
1hr Rain Fall
00.00 in.
24hr Rain Fall
00.00 in.
Sky Condition
Broken @ 7,000 ft
VFR

METAR KHZX 200001Z AUTO 31009KT 10SM BKN070 03/M12 A3000 RMK AO1

FAA Disclaimer: The data displayed is for advisory purposes only and is not to be used for flight planning or operations.